Time;durP1;ratioP1;P1;durP2;ratioP2;P2;SDS_P1;SDS_P2;PMS_P1;PMS_P2;Temp;Humidity;BMP_temperature;BMP_pressure;BME280_temperature;BME280_humidity;BME280_pressure;Samples;Min_cycle;Max_cycle;Signal;HPM_P1;HPM_P2
2023/04/05 00:00:35;;;;;;;;;;;15.10;88.50;;;;;;5136053;27;19943;-70
2023/04/05 00:03:01;;;;;;;;;;;15.10;88.50;;;;;;5136422;27;19907;-70
2023/04/05 00:05:33;;;;;;;;;;;15.10;88.60;;;;;;5117787;27;20259;-70
2023/04/05 00:07:59;;;;;;;;;;;15.10;88.70;;;;;;5136303;27;20002;-70
2023/04/05 00:10:25;;;;;;;;;;;15.10;88.60;;;;;;5135882;27;19907;-70
2023/04/05 00:12:50;;;;;;;;;;;15.10;88.60;;;;;;5135806;27;19907;-70
2023/04/05 00:15:16;;;;;;;;;;;15.10;88.70;;;;;;5117747;27;19914;-70
2023/04/05 00:17:42;;;;;;;;;;;15.10;88.60;;;;;;5135782;27;19908;-70
2023/04/05 00:20:10;;;;;;;;;;;15.10;88.70;;;;;;5136005;27;19994;-70
2023/04/05 00:22:35;;;;;;;;;;;15.10;88.70;;;;;;5135940;27;20052;-70
2023/04/05 00:25:01;;;;;;;;;;;15.10;88.60;;;;;;5135606;27;20002;-70
2023/04/05 00:27:27;;;;;;;;;;;15.00;89.20;;;;;;5136215;27;19998;-70
2023/04/05 00:29:52;;;;;;;;;;;15.00;88.70;;;;;;5135876;27;19908;-70
2023/04/05 00:32:18;;;;;;;;;;;15.00;88.70;;;;;;5135751;27;20481;-70
2023/04/05 00:34:43;;;;;;;;;;;15.00;88.60;;;;;;5135461;27;19917;-70
2023/04/05 00:37:09;;;;;;;;;;;15.00;88.80;;;;;;5135470;27;19956;-70
2023/04/05 00:39:35;;;;;;;;;;;15.00;88.80;;;;;;5135575;27;19946;-70
2023/04/05 00:42:04;;;;;;;;;;;15.00;88.80;;;;;;5135611;27;20208;-70
2023/04/05 00:44:33;;;;;;;;;;;15.00;88.80;;;;;;5135254;27;19915;-70
2023/04/05 00:47:06;;;;;;;;;;;15.00;88.90;;;;;;5135555;27;19922;-70
2023/04/05 00:49:32;;;;;;;;;;;15.00;88.80;;;;;;5117108;27;19907;-70
2023/04/05 00:51:58;;;;;;;;;;;14.90;88.80;;;;;;5135480;27;19908;-71
2023/04/05 00:54:24;;;;;;;;;;;14.90;88.80;;;;;;5135147;27;19914;-70
2023/04/05 00:56:51;;;;;;;;;;;14.90;88.90;;;;;;5135495;27;19967;-70
2023/04/05 00:59:17;;;;;;;;;;;14.90;88.90;;;;;;5135411;27;19915;-70
2023/04/05 01:01:53;;;;;;;;;;;14.90;88.90;;;;;;5117051;27;19908;-70
2023/04/05 01:04:24;;;;;;;;;;;14.90;89.00;;;;;;5135289;27;19922;-70
2023/04/05 01:06:53;;;;;;;;;;;14.90;88.90;;;;;;5116912;27;19971;-70
2023/04/05 01:09:37;;;;;;;;;;;14.90;88.90;;;;;;5116843;28;19911;-70
2023/04/05 01:12:05;;;;;;;;;;;14.90;88.80;;;;;;5116870;28;19918;-70
2023/04/05 01:14:31;;;;;;;;;;;14.90;89.00;;;;;;5116795;28;19912;-70
2023/04/05 01:16:57;;;;;;;;;;;14.90;88.90;;;;;;5134879;28;19930;-70
2023/04/05 01:19:27;;;;;;;;;;;14.90;89.00;;;;;;5134898;28;19908;-71
2023/04/05 01:22:15;;;;;;;;;;;14.90;88.90;;;;;;5116738;28;20123;-70
2023/04/05 01:25:01;;;;;;;;;;;14.80;89.00;;;;;;5135054;28;19911;-70
2023/04/05 01:27:42;;;;;;;;;;;14.90;88.90;;;;;;5135072;28;20331;-70
2023/04/05 01:30:31;;;;;;;;;;;14.80;89.00;;;;;;5134926;28;19907;-69
2023/04/05 01:33:06;;;;;;;;;;;14.80;88.90;;;;;;5123785;27;19990;-71
2023/04/05 01:35:50;;;;;;;;;;;14.80;89.00;;;;;;5116627;28;19914;-70
2023/04/05 01:38:17;;;;;;;;;;;14.80;89.10;;;;;;5135027;28;19914;-70
2023/04/05 01:40:43;;;;;;;;;;;14.80;89.00;;;;;;5134714;28;19957;-70
2023/04/05 01:43:12;;;;;;;;;;;14.80;89.10;;;;;;5135167;28;19924;-70
2023/04/05 01:45:37;;;;;;;;;;;14.80;89.10;;;;;;5134597;28;20354;-70
2023/04/05 01:48:03;;;;;;;;;;;14.70;89.10;;;;;;5134619;28;19907;-70
2023/04/05 01:50:28;;;;;;;;;;;14.80;89.10;;;;;;5134884;28;20270;-70
2023/04/05 01:52:54;;;;;;;;;;;14.70;89.10;;;;;;5134863;28;20338;-70
2023/04/05 01:55:19;;;;;;;;;;;14.70;89.10;;;;;;5119686;27;19907;-70
2023/04/05 01:57:45;;;;;;;;;;;14.70;89.20;;;;;;5138836;27;19908;-70
2023/04/05 02:00:11;;;;;;;;;;;14.70;89.20;;;;;;5139079;27;19908;-69
2023/04/05 02:02:36;;;;;;;;;;;14.70;89.10;;;;;;5138514;27;20286;-70
2023/04/05 02:05:01;;;;;;;;;;;14.70;89.10;;;;;;5138579;27;20277;-70
2023/04/05 02:07:27;;;;;;;;;;;14.70;89.30;;;;;;5120141;27;20014;-70
2023/04/05 02:09:52;;;;;;;;;;;14.70;89.20;;;;;;5138281;27;19908;-70
2023/04/05 02:12:18;;;;;;;;;;;14.70;89.30;;;;;;5120185;27;19914;-70
2023/04/05 02:14:43;;;;;;;;;;;14.70;89.30;;;;;;5138188;27;19919;-70
2023/04/05 02:17:09;;;;;;;;;;;14.60;89.30;;;;;;5138425;27;20010;-69
2023/04/05 02:19:39;;;;;;;;;;;14.70;89.20;;;;;;5138849;27;19915;-70
2023/04/05 02:22:05;;;;;;;;;;;14.70;89.30;;;;;;5138385;27;20265;-71
2023/04/05 02:24:31;;;;;;;;;;;14.60;89.30;;;;;;5119823;27;19911;-70
2023/04/05 02:26:56;;;;;;;;;;;14.60;89.40;;;;;;5137970;27;19912;-70
2023/04/05 02:29:22;;;;;;;;;;;14.60;89.30;;;;;;5137928;27;19908;-70
2023/04/05 02:31:47;;;;;;;;;;;14.60;89.30;;;;;;5119437;27;19914;-70
2023/04/05 02:34:13;;;;;;;;;;;14.60;89.30;;;;;;5137847;27;19907;-70
2023/04/05 02:36:41;;;;;;;;;;;14.60;89.30;;;;;;5137770;27;20018;-70
2023/04/05 02:39:06;;;;;;;;;;;14.60;89.30;;;;;;5138180;27;20006;-71
2023/04/05 02:41:32;;;;;;;;;;;14.60;89.20;;;;;;5119124;27;19966;-71
2023/04/05 02:43:58;;;;;;;;;;;14.60;89.30;;;;;;5137893;27;19912;-70
2023/04/05 02:46:24;;;;;;;;;;;14.60;89.30;;;;;;5137915;27;20283;-70
2023/04/05 02:48:49;;;;;;;;;;;14.60;89.40;;;;;;5119454;27;19915;-70
2023/04/05 02:51:15;;;;;;;;;;;14.60;89.40;;;;;;5137703;27;19998;-70
2023/04/05 02:53:41;;;;;;;;;;;14.50;89.50;;;;;;5137706;27;20310;-71
2023/04/05 02:56:06;;;;;;;;;;;14.50;89.40;;;;;;5137687;27;19914;-70
2023/04/05 02:58:32;;;;;;;;;;;14.50;89.50;;;;;;5137348;27;20255;-70
2023/04/05 03:01:00;;;;;;;;;;;14.50;89.40;;;;;;5137572;27;19908;-71
2023/04/05 03:03:27;;;;;;;;;;;14.50;89.40;;;;;;5137835;27;19914;-70
2023/04/05 03:05:58;;;;;;;;;;;14.50;89.40;;;;;;5136246;27;19964;-70
2023/04/05 03:08:23;;;;;;;;;;;14.50;89.40;;;;;;5137411;27;19907;-70
2023/04/05 03:10:51;;;;;;;;;;;14.50;89.50;;;;;;5137409;27;19911;-70
2023/04/05 03:13:17;;;;;;;;;;;14.50;89.50;;;;;;5118864;27;19908;-70
2023/04/05 03:15:42;;;;;;;;;;;14.50;89.40;;;;;;5137275;27;19915;-70
2023/04/05 03:18:08;;;;;;;;;;;14.50;89.50;;;;;;5137627;27;19907;-70
2023/04/05 03:20:40;;;;;;;;;;;14.50;89.50;;;;;;5137244;27;19914;-70
2023/04/05 03:23:08;;;;;;;;;;;14.50;89.40;;;;;;5137006;27;19946;-70
2023/04/05 03:25:35;;;;;;;;;;;14.50;89.50;;;;;;5137023;27;19961;-70
2023/04/05 03:28:02;;;;;;;;;;;14.40;89.50;;;;;;5136924;27;19917;-70
2023/04/05 03:30:28;;;;;;;;;;;14.50;89.50;;;;;;5136585;27;19953;-70
2023/04/05 03:32:53;;;;;;;;;;;14.40;89.40;;;;;;5136584;27;19912;-70
2023/04/05 03:35:19;;;;;;;;;;;14.40;89.50;;;;;;5136556;27;19968;-71
2023/04/05 03:37:45;;;;;;;;;;;14.40;89.50;;;;;;5136489;27;20393;-70
2023/04/05 03:40:11;;;;;;;;;;;14.40;89.60;;;;;;5137131;27;19950;-70
2023/04/05 03:42:37;;;;;;;;;;;14.40;89.60;;;;;;5118426;27;19966;-71
2023/04/05 03:45:04;;;;;;;;;;;14.40;89.60;;;;;;5136668;27;19947;-70
2023/04/05 03:47:30;;;;;;;;;;;14.40;89.60;;;;;;5118102;27;19919;-70
2023/04/05 03:49:55;;;;;;;;;;;14.40;89.60;;;;;;5118188;27;19908;-70
2023/04/05 03:52:21;;;;;;;;;;;14.40;89.70;;;;;;5136805;27;19908;-71
2023/04/05 03:54:46;;;;;;;;;;;14.40;89.50;;;;;;5136533;27;20002;-70
2023/04/05 03:57:12;;;;;;;;;;;14.40;89.60;;;;;;5118344;27;19930;-69
2023/04/05 03:59:37;;;;;;;;;;;14.40;89.60;;;;;;5136391;27;19908;-70
2023/04/05 04:02:03;;;;;;;;;;;14.30;89.50;;;;;;5136281;27;19907;-70
2023/04/05 04:04:28;;;;;;;;;;;14.40;89.50;;;;;;5136091;27;20378;-70
2023/04/05 04:06:55;;;;;;;;;;;14.30;89.50;;;;;;5136544;27;19980;-70
2023/04/05 04:09:21;;;;;;;;;;;14.30;89.50;;;;;;5136230;27;19952;-70
2023/04/05 04:11:47;;;;;;;;;;;14.30;89.60;;;;;;5136419;27;19914;-71
2023/04/05 04:14:12;;;;;;;;;;;14.30;89.60;;;;;;5135700;27;20305;-69
2023/04/05 04:16:38;;;;;;;;;;;14.30;89.60;;;;;;5135727;27;19908;-70
2023/04/05 04:19:03;;;;;;;;;;;14.30;89.60;;;;;;5135808;27;19915;-71
2023/04/05 04:21:32;;;;;;;;;;;14.30;89.60;;;;;;5135435;27;19911;-70
2023/04/05 04:23:59;;;;;;;;;;;14.20;89.60;;;;;;5135402;27;19911;-70
2023/04/05 04:26:28;;;;;;;;;;;14.20;89.70;;;;;;5135430;27;20377;-70
2023/04/05 04:28:54;;;;;;;;;;;14.30;89.80;;;;;;5135563;27;20378;-70
2023/04/05 04:31:20;;;;;;;;;;;14.20;89.70;;;;;;5135727;27;20008;-70
2023/04/05 04:33:47;;;;;;;;;;;14.20;89.70;;;;;;5135405;27;19908;-70
2023/04/05 04:36:13;;;;;;;;;;;14.20;89.70;;;;;;5135408;27;19914;-71
2023/04/05 04:38:42;;;;;;;;;;;14.30;89.70;;;;;;5135543;27;19911;-70
2023/04/05 04:41:11;;;;;;;;;;;14.30;89.70;;;;;;5135193;27;19908;-70
2023/04/05 04:43:42;;;;;;;;;;;14.20;89.70;;;;;;5135661;27;19907;-71
2023/04/05 04:46:13;;;;;;;;;;;14.20;89.70;;;;;;5135668;27;19973;-70
2023/04/05 04:48:42;;;;;;;;;;;14.20;89.70;;;;;;5135451;27;20006;-70
2023/04/05 04:51:07;;;;;;;;;;;14.20;89.80;;;;;;5135420;27;20284;-70
2023/04/05 04:53:32;;;;;;;;;;;14.20;89.70;;;;;;5134951;27;19908;-69
2023/04/05 04:55:58;;;;;;;;;;;14.20;89.70;;;;;;5134724;27;19936;-70
2023/04/05 04:58:24;;;;;;;;;;;14.20;89.70;;;;;;5116571;27;20002;-69
2023/04/05 05:00:51;;;;;;;;;;;14.20;89.70;;;;;;5135426;27;19919;-68
2023/04/05 05:03:17;;;;;;;;;;;14.20;89.80;;;;;;5134790;27;20427;-68
2023/04/05 05:05:48;;;;;;;;;;;14.20;89.80;;;;;;5116559;27;19912;-68
2023/04/05 05:08:13;;;;;;;;;;;14.20;89.90;;;;;;5135158;27;19918;-68
2023/04/05 05:10:39;;;;;;;;;;;14.20;89.80;;;;;;5135024;27;19964;-69
2023/04/05 05:13:04;;;;;;;;;;;14.20;89.80;;;;;;5135104;27;19983;-69
2023/04/05 05:15:30;;;;;;;;;;;14.20;89.70;;;;;;5134993;27;19915;-69
2023/04/05 05:17:57;;;;;;;;;;;14.20;89.80;;;;;;5116490;28;19908;-69
2023/04/05 05:20:23;;;;;;;;;;;14.10;89.80;;;;;;5134729;28;19907;-69
2023/04/05 05:22:50;;;;;;;;;;;14.10;89.90;;;;;;5135016;28;19911;-69
2023/04/05 05:25:15;;;;;;;;;;;14.20;89.90;;;;;;5134573;28;20323;-68
2023/04/05 05:27:41;;;;;;;;;;;14.10;90.00;;;;;;5134615;28;19915;-68
2023/04/05 05:30:07;;;;;;;;;;;14.10;90.00;;;;;;5137731;27;19915;-69
2023/04/05 05:32:32;;;;;;;;;;;14.10;90.00;;;;;;5120731;27;19907;-68
2023/04/05 05:34:57;;;;;;;;;;;14.10;89.90;;;;;;5139391;27;19968;-69
2023/04/05 05:37:33;;;;;;;;;;;14.10;90.00;;;;;;5138753;27;19907;-69
2023/04/05 05:39:58;;;;;;;;;;;14.10;90.00;;;;;;5120368;27;19955;-69
2023/04/05 05:42:25;;;;;;;;;;;14.10;90.00;;;;;;5138242;27;19999;-70
2023/04/05 05:44:50;;;;;;;;;;;14.10;90.00;;;;;;5139030;27;19911;-69
2023/04/05 05:47:16;;;;;;;;;;;14.00;90.00;;;;;;5138698;27;19912;-70
2023/04/05 05:49:41;;;;;;;;;;;14.10;90.00;;;;;;5139185;27;19911;-69
2023/04/05 05:52:07;;;;;;;;;;;14.00;90.00;;;;;;5138759;27;19914;-69
2023/04/05 05:54:32;;;;;;;;;;;14.00;90.00;;;;;;5138692;27;19915;-69
2023/04/05 05:56:57;;;;;;;;;;;14.00;90.00;;;;;;5138284;27;20434;-69
2023/04/05 05:59:23;;;;;;;;;;;14.00;90.00;;;;;;5138488;27;19907;-69
2023/04/05 06:01:50;;;;;;;;;;;14.00;90.40;;;;;;5119891;27;19920;-70
2023/04/05 06:04:15;;;;;;;;;;;14.00;90.10;;;;;;5137997;27;19912;-70
2023/04/05 06:06:46;;;;;;;;;;;14.00;90.10;;;;;;5138610;27;19917;-70
2023/04/05 06:09:12;;;;;;;;;;;13.90;90.10;;;;;;5119823;27;19950;-70
2023/04/05 06:11:37;;;;;;;;;;;13.90;90.10;;;;;;5138442;27;19958;-70
2023/04/05 06:14:03;;;;;;;;;;;13.90;90.10;;;;;;5138619;27;19914;-70
2023/04/05 06:16:29;;;;;;;;;;;13.90;90.20;;;;;;5138137;27;19911;-71
2023/04/05 06:18:55;;;;;;;;;;;13.90;90.20;;;;;;5137701;27;19947;-70
2023/04/05 06:21:21;;;;;;;;;;;13.90;90.20;;;;;;5138225;27;19914;-70
2023/04/05 06:23:46;;;;;;;;;;;13.90;90.30;;;;;;5137898;27;19908;-70
2023/04/05 06:26:17;;;;;;;;;;;13.90;90.30;;;;;;5138338;27;19912;-71
2023/04/05 06:28:43;;;;;;;;;;;13.90;90.30;;;;;;5119643;27;19908;-70
2023/04/05 06:31:08;;;;;;;;;;;13.90;90.30;;;;;;5138155;27;19967;-70
2023/04/05 06:33:33;;;;;;;;;;;13.90;90.30;;;;;;5137518;27;19908;-71
2023/04/05 06:35:59;;;;;;;;;;;13.90;90.20;;;;;;5119183;27;20379;-70
2023/04/05 06:38:24;;;;;;;;;;;13.90;90.20;;;;;;5137760;27;19907;-70
2023/04/05 06:40:50;;;;;;;;;;;13.80;90.20;;;;;;5137520;27;20360;-70
2023/04/05 06:43:15;;;;;;;;;;;13.80;90.30;;;;;;5119154;27;19920;-70
2023/04/05 06:45:41;;;;;;;;;;;13.80;90.30;;;;;;5137060;27;19911;-70
2023/04/05 06:48:07;;;;;;;;;;;13.90;90.30;;;;;;5119113;27;19915;-70
2023/04/05 06:50:32;;;;;;;;;;;13.80;90.30;;;;;;5118944;27;20011;-70
2023/04/05 06:52:58;;;;;;;;;;;13.80;90.30;;;;;;5137335;27;19972;-70
2023/04/05 06:55:24;;;;;;;;;;;13.80;90.40;;;;;;5137080;27;19994;-70
2023/04/05 06:57:49;;;;;;;;;;;13.80;90.40;;;;;;5119061;27;20285;-70
2023/04/05 07:00:16;;;;;;;;;;;13.80;90.30;;;;;;5137213;27;19907;-70
2023/04/05 07:02:42;;;;;;;;;;;13.80;90.30;;;;;;5137146;27;20354;-70
2023/04/05 07:05:07;;;;;;;;;;;13.80;90.40;;;;;;5137207;27;19923;-70
2023/04/05 07:07:33;;;;;;;;;;;13.80;90.40;;;;;;5136996;27;19933;-70
2023/04/05 07:09:58;;;;;;;;;;;13.80;90.40;;;;;;5118306;27;19918;-70
2023/04/05 07:12:24;;;;;;;;;;;13.80;90.40;;;;;;5136808;27;19907;-70
2023/04/05 07:14:49;;;;;;;;;;;13.80;90.40;;;;;;5118545;27;19960;-69
2023/04/05 07:17:15;;;;;;;;;;;13.80;90.40;;;;;;5136776;27;20337;-70
2023/04/05 07:19:40;;;;;;;;;;;13.80;90.40;;;;;;5137016;27;20011;-70
2023/04/05 07:22:06;;;;;;;;;;;13.90;90.50;;;;;;5118550;27;19947;-70
2023/04/05 07:24:32;;;;;;;;;;;14.00;90.50;;;;;;5136427;27;19918;-70
2023/04/05 07:26:57;;;;;;;;;;;14.10;90.30;;;;;;5136864;27;19965;-70
2023/04/05 07:29:23;;;;;;;;;;;14.20;90.10;;;;;;5118308;27;20391;-70
2023/04/05 07:31:48;;;;;;;;;;;14.40;90.00;;;;;;5118156;27;19998;-69
2023/04/05 07:34:13;;;;;;;;;;;14.50;89.60;;;;;;5136376;27;19908;-70
2023/04/05 07:36:39;;;;;;;;;;;14.60;89.30;;;;;;5136714;27;20320;-70
2023/04/05 07:39:05;;;;;;;;;;;14.70;88.90;;;;;;5136431;27;19907;-70
2023/04/05 07:41:31;;;;;;;;;;;14.80;88.50;;;;;;5117867;27;19919;-70
2023/04/05 07:43:57;;;;;;;;;;;14.90;88.10;;;;;;5136026;27;19911;-70
2023/04/05 07:46:22;;;;;;;;;;;15.10;87.70;;;;;;5136226;27;19933;-70
2023/04/05 07:48:48;;;;;;;;;;;15.20;87.40;;;;;;5136630;27;19907;-70
2023/04/05 07:51:13;;;;;;;;;;;15.20;87.00;;;;;;5135814;27;19907;-70
2023/04/05 07:53:39;;;;;;;;;;;15.30;86.80;;;;;;5136222;27;19934;-70
2023/04/05 07:56:13;;;;;;;;;;;15.40;86.60;;;;;;5117277;27;19907;-70
2023/04/05 07:58:40;;;;;;;;;;;15.40;86.30;;;;;;5135889;27;19914;-70
2023/04/05 08:01:06;;;;;;;;;;;15.50;86.20;;;;;;5117722;27;19953;-69
2023/04/05 08:03:33;;;;;;;;;;;15.50;86.00;;;;;;5136054;27;19908;-70
2023/04/05 08:06:08;;;;;;;;;;;15.50;85.90;;;;;;5117522;27;20305;-70
2023/04/05 08:08:34;;;;;;;;;;;15.60;85.80;;;;;;5117536;27;20255;-70
2023/04/05 08:11:02;;;;;;;;;;;15.60;86.10;;;;;;5135749;27;19912;-70
2023/04/05 08:13:28;;;;;;;;;;;15.70;85.50;;;;;;5135771;27;19908;-70
2023/04/05 08:15:54;;;;;;;;;;;15.70;85.40;;;;;;5135958;27;20266;-70
2023/04/05 08:18:20;;;;;;;;;;;15.70;85.20;;;;;;5135573;27;19964;-70
2023/04/05 08:20:49;;;;;;;;;;;15.70;85.20;;;;;;5135700;27;19907;-70
2023/04/05 08:23:15;;;;;;;;;;;15.70;85.00;;;;;;5135661;27;19908;-70
2023/04/05 08:25:40;;;;;;;;;;;15.70;84.80;;;;;;5135234;27;19918;-70
2023/04/05 08:28:06;;;;;;;;;;;15.70;84.90;;;;;;5117076;27;20000;-70
2023/04/05 08:30:32;;;;;;;;;;;15.70;84.60;;;;;;5135470;27;19907;-70
2023/04/05 08:32:57;;;;;;;;;;;15.80;84.80;;;;;;5135585;27;19907;-70
2023/04/05 08:35:22;;;;;;;;;;;15.80;84.70;;;;;;5117151;27;19911;-70
2023/04/05 08:37:48;;;;;;;;;;;15.90;84.60;;;;;;5117421;27;19907;-69
2023/04/05 08:40:13;;;;;;;;;;;15.90;84.50;;;;;;5135377;27;20358;-71
2023/04/05 08:42:45;;;;;;;;;;;15.90;84.40;;;;;;5135401;27;19923;-70
2023/04/05 08:45:13;;;;;;;;;;;15.80;84.30;;;;;;5135327;27;19946;-70
2023/04/05 08:47:39;;;;;;;;;;;15.90;84.40;;;;;;5135107;27;20002;-70
2023/04/05 08:50:04;;;;;;;;;;;15.90;84.20;;;;;;5135372;27;19939;-70
2023/04/05 08:52:31;;;;;;;;;;;15.80;84.10;;;;;;5135339;27;19907;-70
2023/04/05 08:54:56;;;;;;;;;;;15.80;84.00;;;;;;5116656;27;19907;-70
2023/04/05 08:57:26;;;;;;;;;;;15.70;84.10;;;;;;5135515;27;19999;-70
2023/04/05 08:59:51;;;;;;;;;;;15.70;84.20;;;;;;5116696;27;19914;-70
2023/04/05 09:02:17;;;;;;;;;;;15.80;83.50;;;;;;5134873;27;19908;-70
2023/04/05 09:04:44;;;;;;;;;;;15.80;83.80;;;;;;5134029;27;19918;-70
2023/04/05 09:07:10;;;;;;;;;;;15.80;83.70;;;;;;5116595;28;19922;-70
2023/04/05 09:09:36;;;;;;;;;;;15.80;84.00;;;;;;5135026;27;19960;-70
2023/04/05 09:12:06;;;;;;;;;;;15.80;83.40;;;;;;5135075;27;19915;-70
2023/04/05 09:14:35;;;;;;;;;;;15.80;83.80;;;;;;5116462;28;19907;-70
2023/04/05 09:17:04;;;;;;;;;;;15.80;83.80;;;;;;5134929;27;20003;-70
2023/04/05 09:19:30;;;;;;;;;;;15.70;83.90;;;;;;5134966;28;19908;-70
2023/04/05 09:22:03;;;;;;;;;;;15.80;84.00;;;;;;5116232;28;19907;-70
2023/04/05 09:24:29;;;;;;;;;;;15.90;84.10;;;;;;5134766;28;19958;-70
2023/04/05 09:27:17;;;;;;;;;;;15.90;84.00;;;;;;5134428;28;20266;-70
2023/04/05 09:29:43;;;;;;;;;;;16.00;83.90;;;;;;5116139;28;19907;-69
2023/04/05 09:32:10;;;;;;;;;;;16.00;83.80;;;;;;5134683;28;19907;-69
2023/04/05 09:34:36;;;;;;;;;;;16.00;83.70;;;;;;5134668;28;20273;-69
2023/04/05 09:37:02;;;;;;;;;;;16.10;83.70;;;;;;5116176;28;19907;-69
2023/04/05 09:39:29;;;;;;;;;;;16.10;83.70;;;;;;5134216;28;19951;-69
2023/04/05 09:42:07;;;;;;;;;;;16.10;83.70;;;;;;5134751;28;19927;-69
2023/04/05 09:44:48;;;;;;;;;;;16.10;83.60;;;;;;5134215;28;19958;-69
2023/04/05 09:47:17;;;;;;;;;;;16.10;83.60;;;;;;5134136;28;19918;-70
2023/04/05 09:49:43;;;;;;;;;;;16.10;83.50;;;;;;5134171;28;20358;-69
2023/04/05 09:52:27;;;;;;;;;;;16.10;83.50;;;;;;5134901;28;20417;-69
2023/04/05 09:54:57;;;;;;;;;;;16.20;83.50;;;;;;5134580;28;20065;-69
2023/04/05 09:57:26;;;;;;;;;;;16.10;83.50;;;;;;5134657;28;19915;-69
2023/04/05 09:59:52;;;;;;;;;;;16.20;83.50;;;;;;5116130;28;19907;-69
2023/04/05 10:02:18;;;;;;;;;;;16.20;83.50;;;;;;5134200;28;20303;-69
2023/04/05 10:04:44;;;;;;;;;;;16.20;83.50;;;;;;5134768;28;19911;-70
2023/04/05 10:07:13;;;;;;;;;;;16.20;83.50;;;;;;5116031;28;20046;-69
2023/04/05 10:09:39;;;;;;;;;;;16.20;83.50;;;;;;5134502;28;19939;-69
2023/04/05 10:12:06;;;;;;;;;;;16.20;83.50;;;;;;5134396;28;19908;-69
2023/04/05 10:14:31;;;;;;;;;;;16.20;83.40;;;;;;5134842;27;19937;-69
2023/04/05 10:17:22;;;;;;;;;;;16.20;83.40;;;;;;5119386;27;19913;-69
2023/04/05 10:19:47;;;;;;;;;;;16.20;83.40;;;;;;5119663;27;19914;-69
2023/04/05 10:22:21;;;;;;;;;;;16.20;83.80;;;;;;5137896;27;19907;-70
2023/04/05 10:24:56;;;;;;;;;;;16.20;83.40;;;;;;5137598;27;19918;-69
2023/04/05 10:27:24;;;;;;;;;;;16.20;83.30;;;;;;5119065;27;20330;-69
2023/04/05 10:29:55;;;;;;;;;;;16.10;83.30;;;;;;5137701;27;19916;-69
2023/04/05 10:32:38;;;;;;;;;;;16.20;83.40;;;;;;5137917;27;19914;-69
2023/04/05 10:35:15;;;;;;;;;;;16.20;83.30;;;;;;5137432;27;19907;-69
2023/04/05 10:37:47;;;;;;;;;;;16.20;83.30;;;;;;5119189;27;19956;-69
2023/04/05 10:40:12;;;;;;;;;;;16.20;83.20;;;;;;5119617;27;20253;-69
2023/04/05 10:42:44;;;;;;;;;;;16.20;83.30;;;;;;5118815;27;20002;-69
2023/04/05 10:45:11;;;;;;;;;;;16.20;83.30;;;;;;5137264;27;19965;-69
2023/04/05 10:47:46;;;;;;;;;;;16.20;83.20;;;;;;5137349;27;19937;-69
2023/04/05 10:50:16;;;;;;;;;;;16.20;83.20;;;;;;5137635;27;19908;-69
2023/04/05 10:52:42;;;;;;;;;;;16.20;83.30;;;;;;5137248;27;20319;-69
2023/04/05 10:55:08;;;;;;;;;;;16.20;83.30;;;;;;5137191;27;19908;-69
2023/04/05 10:57:35;;;;;;;;;;;16.20;83.20;;;;;;5137124;27;20281;-69
2023/04/05 11:00:01;;;;;;;;;;;16.20;83.20;;;;;;5118614;27;19908;-69
2023/04/05 11:02:27;;;;;;;;;;;16.20;83.30;;;;;;5137649;27;19908;-68
2023/04/05 11:04:56;;;;;;;;;;;16.20;83.30;;;;;;5118719;27;19918;-69
2023/04/05 11:07:21;;;;;;;;;;;16.20;83.30;;;;;;5136927;27;19912;-66
2023/04/05 11:10:12;;;;;;;;;;;16.20;83.20;;;;;;5136809;27;19907;-69
2023/04/05 11:12:54;;;;;;;;;;;16.20;83.30;;;;;;5136725;27;20358;-69
2023/04/05 11:15:33;;;;;;;;;;;16.20;83.30;;;;;;5118361;27;19908;-69
2023/04/05 11:18:04;;;;;;;;;;;16.20;83.30;;;;;;5136807;27;20350;-69
2023/04/05 11:20:43;;;;;;;;;;;16.20;83.30;;;;;;5118405;27;19912;-70
2023/04/05 11:23:10;;;;;;;;;;;16.10;83.20;;;;;;5118437;27;19912;-69
2023/04/05 11:25:39;;;;;;;;;;;16.10;83.20;;;;;;5136266;27;20047;-69
2023/04/05 11:28:05;;;;;;;;;;;16.10;83.20;;;;;;5135761;27;19911;-69
2023/04/05 11:30:46;;;;;;;;;;;16.10;83.10;;;;;;5118194;27;19915;-70
2023/04/05 11:33:31;;;;;;;;;;;16.20;83.20;;;;;;5136347;27;20346;-69
2023/04/05 11:36:01;;;;;;;;;;;16.10;83.20;;;;;;5136393;27;19907;-69
2023/04/05 11:38:27;;;;;;;;;;;16.10;83.20;;;;;;5136491;27;19908;-69
2023/04/05 11:41:03;;;;;;;;;;;16.10;83.10;;;;;;5136258;27;20262;-68
2023/04/05 11:43:29;;;;;;;;;;;16.10;83.20;;;;;;5117990;27;19970;-70
2023/04/05 11:45:55;;;;;;;;;;;16.20;83.20;;;;;;5117334;27;19965;-69
2023/04/05 11:48:21;;;;;;;;;;;16.20;83.20;;;;;;5136470;27;19911;-70
2023/04/05 11:50:46;;;;;;;;;;;16.10;83.10;;;;;;5118039;27;19914;-70
2023/04/05 11:53:18;;;;;;;;;;;16.10;83.20;;;;;;5135971;27;19908;-70
2023/04/05 11:55:45;;;;;;;;;;;16.10;83.20;;;;;;5135935;27;19960;-70
2023/04/05 11:58:30;;;;;;;;;;;16.10;83.20;;;;;;5136083;27;19908;-69
2023/04/05 12:00:57;;;;;;;;;;;16.10;83.20;;;;;;5116888;27;19957;-69
2023/04/05 12:03:23;;;;;;;;;;;16.10;83.20;;;;;;5117517;27;20006;-68
2023/04/05 12:05:49;;;;;;;;;;;16.10;83.00;;;;;;5135583;27;19981;-70
2023/04/05 12:08:15;;;;;;;;;;;16.10;82.90;;;;;;5136054;27;20263;-70
2023/04/05 12:10:41;;;;;;;;;;;16.10;83.10;;;;;;5136029;27;19915;-69
2023/04/05 12:13:06;;;;;;;;;;;16.10;83.50;;;;;;5135978;27;19907;-69
2023/04/05 12:15:35;;;;;;;;;;;16.10;83.10;;;;;;5136090;27;19914;-69
2023/04/05 12:18:00;;;;;;;;;;;16.10;83.10;;;;;;5117224;27;19915;-70
2023/04/05 12:20:27;;;;;;;;;;;16.10;83.10;;;;;;5135550;27;19908;-69
2023/04/05 12:22:53;;;;;;;;;;;16.10;83.10;;;;;;5135660;27;19907;-69
2023/04/05 12:25:19;;;;;;;;;;;16.10;83.10;;;;;;5135373;27;19911;-70
2023/04/05 12:27:45;;;;;;;;;;;16.20;83.10;;;;;;5117201;27;19922;-70
2023/04/05 12:30:17;;;;;;;;;;;16.10;83.10;;;;;;5136002;27;20274;-70
2023/04/05 12:32:43;;;;;;;;;;;16.10;83.00;;;;;;5135167;27;20000;-71
2023/04/05 12:35:10;;;;;;;;;;;16.10;83.00;;;;;;5116619;27;19947;-70
2023/04/05 12:37:36;;;;;;;;;;;16.10;83.00;;;;;;5134812;27;19951;-70
2023/04/05 12:40:02;;;;;;;;;;;16.10;83.10;;;;;;5135154;27;19907;-70
2023/04/05 12:42:35;;;;;;;;;;;16.10;83.10;;;;;;5135510;27;20014;-70
2023/04/05 12:45:04;;;;;;;;;;;16.10;83.10;;;;;;5116710;27;19941;-70
2023/04/05 12:47:31;;;;;;;;;;;16.10;83.10;;;;;;5116392;27;19922;-70
2023/04/05 12:49:56;;;;;;;;;;;16.10;83.00;;;;;;5116725;27;19907;-70
2023/04/05 12:52:25;;;;;;;;;;;16.10;83.00;;;;;;5135211;27;19915;-70
2023/04/05 12:54:54;;;;;;;;;;;16.10;83.10;;;;;;5116732;27;19920;-70
2023/04/05 12:57:30;;;;;;;;;;;16.10;83.00;;;;;;5135176;27;20002;-70
2023/04/05 12:59:56;;;;;;;;;;;16.10;83.00;;;;;;5135119;27;19951;-69
2023/04/05 13:02:21;;;;;;;;;;;16.10;83.00;;;;;;5135142;27;19915;-69
2023/04/05 13:04:47;;;;;;;;;;;16.10;83.00;;;;;;5134781;27;19919;-69
2023/04/05 13:07:12;;;;;;;;;;;16.10;83.00;;;;;;5134519;27;19912;-70
2023/04/05 13:09:37;;;;;;;;;;;16.10;83.00;;;;;;5134890;27;20007;-70
2023/04/05 13:12:03;;;;;;;;;;;16.20;83.00;;;;;;5116080;27;19916;-70
2023/04/05 13:14:29;;;;;;;;;;;16.10;83.00;;;;;;5134683;27;20009;-69
2023/04/05 13:16:54;;;;;;;;;;;16.20;83.00;;;;;;5116461;27;19915;-68
2023/04/05 13:19:20;;;;;;;;;;;16.20;83.00;;;;;;5135051;27;19907;-69
2023/04/05 13:21:46;;;;;;;;;;;16.20;83.00;;;;;;5116466;28;19908;-70
2023/04/05 13:24:11;;;;;;;;;;;16.10;82.90;;;;;;5115997;28;19955;-70
2023/04/05 13:26:36;;;;;;;;;;;16.10;82.90;;;;;;5134389;28;19951;-69
2023/04/05 13:29:02;;;;;;;;;;;16.10;82.90;;;;;;5134338;28;19960;-69
2023/04/05 13:31:28;;;;;;;;;;;16.10;82.90;;;;;;5116220;28;20343;-69
2023/04/05 13:33:53;;;;;;;;;;;16.10;82.90;;;;;;5134493;28;19919;-69
2023/04/05 13:36:19;;;;;;;;;;;16.10;82.90;;;;;;5134731;28;20266;-69
2023/04/05 13:38:44;;;;;;;;;;;16.10;82.90;;;;;;5116258;28;19918;-69
2023/04/05 13:41:10;;;;;;;;;;;16.10;82.90;;;;;;5116123;28;19943;-69
2023/04/05 13:43:35;;;;;;;;;;;16.10;82.90;;;;;;5134659;28;20012;-69
2023/04/05 13:46:01;;;;;;;;;;;16.10;82.90;;;;;;5134441;28;19918;-69
2023/04/05 13:48:26;;;;;;;;;;;16.10;82.90;;;;;;5116154;28;20385;-69
2023/04/05 13:50:52;;;;;;;;;;;16.10;82.90;;;;;;5136826;27;19908;-70
2023/04/05 13:53:17;;;;;;;;;;;16.10;82.90;;;;;;5138358;27;20354;-70
2023/04/05 13:55:42;;;;;;;;;;;16.10;82.90;;;;;;5138108;27;19986;-70
2023/04/05 13:58:08;;;;;;;;;;;16.10;82.90;;;;;;5120057;27;19915;-70
2023/04/05 14:00:33;;;;;;;;;;;16.10;82.90;;;;;;5138417;27;19907;-70
2023/04/05 14:02:59;;;;;;;;;;;16.10;82.90;;;;;;5138305;27;19911;-69
2023/04/05 14:05:24;;;;;;;;;;;16.10;82.90;;;;;;5138346;27;20350;-70
2023/04/05 14:07:50;;;;;;;;;;;16.10;82.90;;;;;;5137866;27;20002;-70
2023/04/05 14:10:16;;;;;;;;;;;16.10;82.90;;;;;;5119689;27;19907;-70
2023/04/05 14:12:42;;;;;;;;;;;16.10;82.90;;;;;;5137696;27;20384;-69
2023/04/05 14:15:07;;;;;;;;;;;16.10;82.90;;;;;;5138145;27;20010;-69
2023/04/05 14:17:33;;;;;;;;;;;16.00;82.90;;;;;;5137819;27;20373;-69